createdAt,value
2022-11-29T00:02:44.694Z,2.86
2022-11-29T00:07:46.940Z,2.84
2022-11-29T00:12:49.486Z,2.78
2022-11-29T00:17:53.035Z,2.78
2022-11-29T00:22:55.236Z,2.75
2022-11-29T00:27:57.168Z,2.76
2022-11-29T00:33:00.723Z,2.77
2022-11-29T00:38:02.817Z,2.76
2022-11-29T00:43:04.938Z,2.79
2022-11-29T00:48:08.256Z,2.79
2022-11-29T00:53:10.379Z,2.80
2022-11-29T00:58:12.404Z,2.82
2022-11-29T01:03:16.420Z,2.79
2022-11-29T01:08:18.556Z,2.77
2022-11-29T01:13:20.626Z,2.75
2022-11-29T01:18:24.278Z,2.75
2022-11-29T01:23:26.843Z,2.77
2022-11-29T01:28:29.775Z,2.75
2022-11-29T01:33:33.444Z,2.76
2022-11-29T01:38:36.470Z,2.78
2022-11-29T01:43:55.324Z,2.76
2022-11-29T01:49:03.838Z,2.80
2022-11-29T01:54:06.624Z,2.80
2022-11-29T01:59:12.973Z,2.84
2022-11-29T02:04:18.644Z,2.82
2022-11-29T02:09:22.994Z,2.94
2022-11-29T02:14:40.401Z,2.91
2022-11-29T02:20:08.853Z,2.88
2022-11-29T02:25:31.245Z,2.91
2022-11-29T02:30:53.965Z,2.92
2022-11-29T02:36:24.324Z,2.91
2022-11-29T02:41:44.699Z,2.90
2022-11-29T02:46:57.041Z,2.88
2022-11-29T02:52:02.606Z,2.84
2022-11-29T02:57:16.204Z,2.83
2022-11-29T03:02:24.933Z,2.80
2022-11-29T03:07:39.333Z,2.78
2022-11-29T03:12:46.635Z,2.73
2022-11-29T03:18:04.152Z,2.80
2022-11-29T03:23:22.198Z,2.80
2022-11-29T03:28:31.334Z,2.81
2022-11-29T03:33:45.570Z,2.78
2022-11-29T03:38:53.110Z,2.81
2022-11-29T03:44:00.300Z,2.81
2022-11-29T03:49:06.720Z,2.81
2022-11-29T03:54:15.348Z,2.90
2022-11-29T03:59:30.182Z,2.83
2022-11-29T04:05:05.056Z,2.89
2022-11-29T04:10:20.804Z,2.82
2022-11-29T04:15:57.443Z,2.83
2022-11-29T04:21:30.576Z,2.83
2022-11-29T04:26:57.936Z,2.87
2022-11-29T04:32:47.536Z,2.81
2022-11-29T04:38:16.662Z,2.89
2022-11-29T04:43:49.934Z,2.76
2022-11-29T04:49:06.441Z,2.79
2022-11-29T04:54:20.906Z,2.78
2022-11-29T04:59:30.844Z,2.81
2022-11-29T05:04:41.052Z,2.83
2022-11-29T05:09:58.838Z,2.80
2022-11-29T05:15:49.382Z,2.80
2022-11-29T05:20:58.067Z,2.77
2022-11-29T05:26:05.522Z,2.77
2022-11-29T05:31:25.189Z,2.72
2022-11-29T05:36:40.038Z,2.73
2022-11-29T05:42:05.194Z,2.75
2022-11-29T05:47:09.800Z,2.78
2022-11-29T05:52:36.512Z,2.76
2022-11-29T05:57:46.665Z,2.73
2022-11-29T06:02:58.613Z,2.75
2022-11-29T06:08:07.125Z,2.79
2022-11-29T06:13:20.838Z,2.79
2022-11-29T06:18:38.095Z,2.75
2022-11-29T06:23:55.750Z,2.85
2022-11-29T06:29:17.921Z,2.84
2022-11-29T06:34:31.043Z,2.87
2022-11-29T06:39:33.529Z,2.89
2022-11-29T06:44:36.208Z,2.90
2022-11-29T06:49:47.217Z,2.92
2022-11-29T06:55:03.091Z,2.92
2022-11-29T07:00:12.752Z,3.02
2022-11-29T07:05:23.788Z,3.02
2022-11-29T07:10:27.644Z,3.01
2022-11-29T07:15:30.172Z,3.03
2022-11-29T07:20:41.450Z,3.14
2022-11-29T07:25:53.090Z,3.09
2022-11-29T07:31:05.382Z,3.10
2022-11-29T07:36:14.823Z,3.23
2022-11-29T07:41:23.287Z,3.22
2022-11-29T07:46:25.579Z,3.24
2022-11-29T07:51:28.831Z,3.30
2022-11-29T07:56:30.854Z,3.30
2022-11-29T08:01:33.044Z,3.33
2022-11-29T08:06:36.480Z,3.66
2022-11-29T08:11:39.631Z,3.72
2022-11-29T08:16:41.740Z,3.74
2022-11-29T08:21:45.511Z,3.88
2022-11-29T08:26:47.664Z,3.92
2022-11-29T08:31:51.184Z,3.84
2022-11-29T08:36:56.291Z,4.00
2022-11-29T08:41:58.417Z,3.97
2022-11-29T08:47:00.753Z,3.87
2022-11-29T08:52:04.149Z,3.84
2022-11-29T08:57:38.147Z,4.07
2022-11-29T09:02:27.995Z,3.94
2022-11-29T09:07:31.659Z,3.96
2022-11-29T09:12:34.917Z,4.09
2022-11-29T09:17:37.263Z,4.10
2022-11-29T09:22:40.286Z,4.22
2022-11-29T09:27:45.140Z,4.11
2022-11-29T09:32:47.297Z,4.23
2022-11-29T09:37:51.034Z,4.36
2022-11-29T09:43:00.319Z,4.58
2022-11-29T09:48:37.267Z,4.63
2022-11-29T09:53:53.596Z,4.58
2022-11-29T09:58:59.542Z,4.58
2022-11-29T10:04:04.876Z,4.70
2022-11-29T10:09:17.238Z,4.79
2022-11-29T10:14:22.626Z,4.79
2022-11-29T10:19:30.944Z,4.87
2022-11-29T10:24:34.948Z,4.86
2022-11-29T10:29:37.072Z,4.94
2022-11-29T10:34:40.191Z,5.10
2022-11-29T10:39:47.253Z,5.10
2022-11-29T10:44:49.032Z,5.02
2022-11-29T10:49:51.440Z,4.97
2022-11-29T10:54:58.952Z,4.83
2022-11-29T11:00:05.066Z,4.81
2022-11-29T11:05:14.590Z,4.94
2022-11-29T11:10:27.667Z,4.99
2022-11-29T11:15:31.352Z,4.87
2022-11-29T11:20:35.875Z,4.88
2022-11-29T11:25:40.811Z,4.93
2022-11-29T11:30:51.346Z,4.86
2022-11-29T11:36:09.444Z,4.97
2022-11-29T11:41:23.903Z,4.93
2022-11-29T11:46:47.306Z,4.99
2022-11-29T11:51:50.456Z,5.14
2022-11-29T11:56:53.796Z,5.17
2022-11-29T12:01:55.951Z,5.16
2022-11-29T12:07:00.667Z,5.19
2022-11-29T12:12:15.228Z,5.11
2022-11-29T12:17:26.627Z,5.14
2022-11-29T12:22:35.780Z,5.09
2022-11-29T12:27:39.391Z,5.12
2022-11-29T12:33:03.734Z,5.23
2022-11-29T12:38:18.674Z,5.26
2022-11-29T12:43:32.114Z,5.21
2022-11-29T12:48:43.361Z,5.21
2022-11-29T12:53:59.422Z,5.37
2022-11-29T12:59:15.412Z,5.24
2022-11-29T13:04:25.424Z,5.19
2022-11-29T13:09:46.654Z,5.19
2022-11-29T13:14:57.572Z,5.20
2022-11-29T13:20:04.148Z,5.23
2022-11-29T13:25:15.346Z,5.07
2022-11-29T13:30:19.277Z,5.05
2022-11-29T13:35:25.229Z,4.85
2022-11-29T13:40:36.298Z,4.95
2022-11-29T13:45:46.904Z,4.94
2022-11-29T13:50:49.512Z,4.87
2022-11-29T13:55:55.822Z,4.81
2022-11-29T14:01:02.309Z,4.75
2022-11-29T14:06:31.639Z,4.68
2022-11-29T14:11:44.447Z,4.63
2022-11-29T14:16:50.337Z,4.73
2022-11-29T14:22:27.245Z,4.70
2022-11-29T14:27:55.933Z,4.58
2022-11-29T14:33:04.913Z,4.52
2022-11-29T14:38:14.334Z,4.52
2022-11-29T14:43:21.757Z,4.55
2022-11-29T14:48:27.034Z,4.55
2022-11-29T14:53:33.973Z,4.46
2022-11-29T14:58:35.897Z,4.44
2022-11-29T15:03:46.126Z,4.37
2022-11-29T15:08:54.377Z,4.37
2022-11-29T15:14:04.222Z,4.39
2022-11-29T15:19:33.778Z,4.39
2022-11-29T15:24:50.596Z,4.38
2022-11-29T15:29:52.692Z,4.35
2022-11-29T15:34:56.747Z,4.41
2022-11-29T15:40:03.831Z,4.34
2022-11-29T15:45:28.380Z,4.39
2022-11-29T15:50:33.665Z,4.35
2022-11-29T15:55:35.756Z,4.36
2022-11-29T16:00:38.287Z,4.33
2022-11-29T16:05:42.207Z,4.29
2022-11-29T16:10:46.973Z,4.29
2022-11-29T16:15:48.755Z,4.37
2022-11-29T16:21:00.127Z,4.34
2022-11-29T16:26:11.621Z,4.42
2022-11-29T16:31:18.091Z,4.21
2022-11-29T16:36:25.393Z,4.27
2022-11-29T16:41:32.270Z,4.37
2022-11-29T16:46:36.571Z,4.32
2022-11-29T16:51:46.180Z,4.29
2022-11-29T16:56:48.444Z,4.31
2022-11-29T17:01:51.224Z,4.29
2022-11-29T17:06:55.720Z,4.29
2022-11-29T17:11:58.500Z,4.28
2022-11-29T17:17:03.122Z,4.22
2022-11-29T17:22:06.848Z,4.27
2022-11-29T17:27:08.929Z,4.24
2022-11-29T17:32:10.982Z,4.23
2022-11-29T17:37:14.276Z,4.22
2022-11-29T17:42:16.025Z,4.25
2022-11-29T17:47:17.744Z,4.27
2022-11-29T17:52:20.900Z,4.26
2022-11-29T17:57:22.900Z,4.19
2022-11-29T18:02:25.032Z,4.19
2022-11-29T18:07:28.436Z,4.23
2022-11-29T18:12:30.737Z,4.18
2022-11-29T18:17:32.760Z,4.24
2022-11-29T18:22:36.133Z,4.25
2022-11-29T18:27:38.025Z,4.28
2022-11-29T18:32:40.002Z,4.27
2022-11-29T18:38:13.618Z,4.27
2022-11-29T18:43:05.633Z,4.22
2022-11-29T18:48:07.702Z,4.24
2022-11-29T18:53:11.323Z,4.24
2022-11-29T18:58:13.766Z,4.25
2022-11-29T19:03:16.053Z,4.23
2022-11-29T19:08:19.547Z,4.18
2022-11-29T19:13:21.951Z,4.18
2022-11-29T19:18:23.917Z,4.24
2022-11-29T19:23:27.276Z,4.22
2022-11-29T19:28:29.257Z,4.14
2022-11-29T19:33:31.297Z,4.17
2022-11-29T19:38:35.948Z,4.17
2022-11-29T19:43:38.259Z,4.27
2022-11-29T19:48:40.760Z,4.23
2022-11-29T19:53:45.250Z,4.26
2022-11-29T19:58:47.534Z,4.23
2022-11-29T20:03:50.421Z,4.24
2022-11-29T20:08:54.409Z,4.30
2022-11-29T20:13:58.452Z,4.24
2022-11-29T20:19:01.356Z,4.29
2022-11-29T20:24:07.379Z,4.27
2022-11-29T20:29:10.541Z,4.35
2022-11-29T20:34:14.728Z,4.30
2022-11-29T20:39:31.007Z,4.33
2022-11-29T20:44:37.560Z,4.29
2022-11-29T20:49:40.471Z,4.31
2022-11-29T20:54:43.834Z,4.32
2022-11-29T20:59:46.275Z,4.34
2022-11-29T21:04:54.219Z,4.34
2022-11-29T21:10:01.642Z,4.31
2022-11-29T21:15:05.320Z,4.34
2022-11-29T21:20:09.080Z,4.33
2022-11-29T21:25:20.545Z,4.26
2022-11-29T21:30:24.678Z,4.33
2022-11-29T21:35:26.497Z,4.30
2022-11-29T21:40:31.271Z,4.27
2022-11-29T21:45:32.910Z,4.36
2022-11-29T21:50:34.626Z,4.28
2022-11-29T21:55:38.083Z,4.28
2022-11-29T22:00:39.771Z,4.33
2022-11-29T22:05:42.076Z,4.30
2022-11-29T22:10:45.548Z,4.27
2022-11-29T22:15:47.795Z,4.27
2022-11-29T22:20:49.740Z,4.27
2022-11-29T22:25:52.746Z,4.27
2022-11-29T22:31:02.150Z,4.29
2022-11-29T22:36:05.818Z,4.25
2022-11-29T22:41:10.911Z,4.24
2022-11-29T22:46:16.141Z,4.25
2022-11-29T22:51:20.028Z,4.25
2022-11-29T22:56:24.250Z,4.25
2022-11-29T23:01:27.910Z,4.32
2022-11-29T23:06:32.386Z,4.32
2022-11-29T23:11:35.838Z,4.29
2022-11-29T23:16:38.227Z,4.33
2022-11-29T23:21:41.218Z,4.31
2022-11-29T23:26:46.519Z,4.21
2022-11-29T23:31:49.040Z,4.28
2022-11-29T23:36:53.173Z,4.24
2022-11-29T23:41:56.814Z,4.25
2022-11-29T23:46:58.813Z,4.30
2022-11-29T23:52:00.436Z,4.28
2022-11-29T23:57:05.356Z,4.28
